createdAt,value
2018-11-28T00:00:28.114Z,98.52
2018-11-28T00:02:57.359Z,98.59
2018-11-28T00:05:26.377Z,98.79
2018-11-28T00:07:55.612Z,99.00
2018-11-28T00:10:24.565Z,98.75
2018-11-28T00:12:53.629Z,98.98
2018-11-28T00:15:22.579Z,99.15
2018-11-28T00:17:51.600Z,99.33
2018-11-28T00:20:21.549Z,99.57
2018-11-28T00:22:50.535Z,99.60
2018-11-28T00:25:19.957Z,99.66
2018-11-28T00:27:48.955Z,99.22
2018-11-28T00:30:21.607Z,99.34
2018-11-28T00:32:50.628Z,99.42
2018-11-28T00:35:20.623Z,99.52
2018-11-28T00:37:49.584Z,100.00
2018-11-28T00:40:19.836Z,99.66
2018-11-28T00:42:48.877Z,99.74
2018-11-28T00:45:19.460Z,99.84
2018-11-28T00:47:48.464Z,99.70
2018-11-28T00:50:18.582Z,99.62
2018-11-28T00:52:47.537Z,99.57
2018-11-28T00:55:17.326Z,99.49
2018-11-28T00:57:46.457Z,99.70
2018-11-28T01:00:17.624Z,99.50
2018-11-28T01:02:47.145Z,99.71
2018-11-28T01:05:16.177Z,99.36
2018-11-28T01:07:45.891Z,99.16
2018-11-28T01:10:15.974Z,98.67
2018-11-28T01:12:44.926Z,98.60
2018-11-28T01:15:15.896Z,99.03
2018-11-28T01:17:45.016Z,99.03
2018-11-28T01:20:15.108Z,98.91
2018-11-28T01:22:44.148Z,99.02
2018-11-28T01:25:15.079Z,99.23
2018-11-28T01:27:44.171Z,99.48
2018-11-28T01:30:14.126Z,99.78
2018-11-28T01:32:43.287Z,99.38
2018-11-28T01:35:13.168Z,99.10
2018-11-28T01:37:42.466Z,99.05
2018-11-28T01:40:19.456Z,99.00
2018-11-28T01:42:48.475Z,98.94
2018-11-28T01:45:18.255Z,99.59
2018-11-28T01:47:47.356Z,99.80
2018-11-28T01:50:17.242Z,99.63
2018-11-28T01:52:46.278Z,99.83
2018-11-28T01:55:19.539Z,99.93
2018-11-28T01:57:48.556Z,99.67
2018-11-28T02:00:26.660Z,99.12
2018-11-28T02:02:56.764Z,99.72
2018-11-28T02:05:25.748Z,99.52
2018-11-28T02:07:54.788Z,99.61
2018-11-28T02:10:23.746Z,99.60
2018-11-28T02:12:53.400Z,99.45
2018-11-28T02:15:27.611Z,99.50
2018-11-28T02:17:57.319Z,99.51
2018-11-28T02:20:27.469Z,99.87
2018-11-28T02:22:56.483Z,100.00
2018-11-28T02:25:25.426Z,100.00
2018-11-28T02:27:54.403Z,99.59
2018-11-28T02:30:23.332Z,99.87
2018-11-28T02:32:52.323Z,99.69
2018-11-28T02:35:21.408Z,99.74
2018-11-28T02:37:50.380Z,99.27
2018-11-28T02:40:20.019Z,99.28
2018-11-28T02:42:50.024Z,99.42
2018-11-28T02:45:19.997Z,99.50
2018-11-28T02:47:49.290Z,99.75
2018-11-28T02:50:18.316Z,99.67
2018-11-28T02:52:47.282Z,99.90
2018-11-28T02:55:17.154Z,99.84
2018-11-28T02:57:47.180Z,99.96
2018-11-28T03:00:21.041Z,99.65
2018-11-28T03:02:50.098Z,100.00
2018-11-28T03:05:19.202Z,99.97
2018-11-28T03:07:48.355Z,100.00
2018-11-28T03:10:18.356Z,100.00
2018-11-28T03:12:47.420Z,99.71
2018-11-28T03:15:19.440Z,99.30
2018-11-28T03:17:48.392Z,99.13
2018-11-28T03:20:17.335Z,99.01
2018-11-28T03:22:46.292Z,98.83
2018-11-28T03:25:15.310Z,98.98
2018-11-28T03:27:44.250Z,99.52
2018-11-28T03:30:14.299Z,99.47
2018-11-28T03:32:43.247Z,99.57
2018-11-28T03:35:13.316Z,99.38
2018-11-28T03:37:42.363Z,99.68
2018-11-28T03:40:11.573Z,99.56
2018-11-28T03:42:40.732Z,99.32
2018-11-28T03:45:11.979Z,99.52
2018-11-28T03:47:41.572Z,100.00
2018-11-28T03:50:11.600Z,99.92
2018-11-28T03:52:40.617Z,99.63
2018-11-28T03:55:15.733Z,99.40
2018-11-28T03:57:45.840Z,99.78
2018-11-28T04:00:15.829Z,100.00
2018-11-28T04:02:44.800Z,100.00
2018-11-28T04:05:13.907Z,100.00
2018-11-28T04:07:42.879Z,100.00
2018-11-28T04:10:12.725Z,100.00
2018-11-28T04:12:42.280Z,99.85
2018-11-28T04:15:13.258Z,100.00
2018-11-28T04:17:42.357Z,99.58
2018-11-28T04:20:13.652Z,98.98
2018-11-28T04:22:42.700Z,98.76
2018-11-28T04:25:12.472Z,99.05
2018-11-28T04:27:41.475Z,98.77
2018-11-28T04:30:19.966Z,99.16
2018-11-28T04:32:49.289Z,98.58
2018-11-28T04:35:19.113Z,98.19
2018-11-28T04:37:48.098Z,98.31
2018-11-28T04:40:19.119Z,97.92
2018-11-28T04:42:48.566Z,98.30
2018-11-28T04:45:19.520Z,98.87
2018-11-28T04:47:48.497Z,98.68
2018-11-28T04:50:17.494Z,99.28
2018-11-28T04:52:46.434Z,99.23
2018-11-28T04:55:16.324Z,99.01
2018-11-28T04:57:45.290Z,99.60
2018-11-28T05:00:16.401Z,99.71
2018-11-28T05:02:45.519Z,99.38
2018-11-28T05:05:14.634Z,99.78
2018-11-28T05:07:44.452Z,100.00
2018-11-28T05:10:14.455Z,99.89
2018-11-28T05:12:43.454Z,99.89
2018-11-28T05:15:13.382Z,99.38
2018-11-28T05:17:42.651Z,99.70
2018-11-28T05:20:12.739Z,99.63
2018-11-28T05:22:41.700Z,99.87
2018-11-28T05:25:14.112Z,99.99
2018-11-28T05:27:43.156Z,99.69
2018-11-28T05:30:14.195Z,99.62
2018-11-28T05:32:43.131Z,99.38
2018-11-28T05:35:17.200Z,99.44
2018-11-28T05:37:46.751Z,99.77
2018-11-28T05:40:19.111Z,99.71
2018-11-28T05:42:48.379Z,99.47
2018-11-28T05:45:17.484Z,99.38
2018-11-28T05:47:46.517Z,99.40
2018-11-28T05:50:16.707Z,98.95
2018-11-28T05:52:45.641Z,100.00
2018-11-28T05:55:15.391Z,100.00
2018-11-28T05:57:44.392Z,99.95
2018-11-28T06:00:44.529Z,96.88
2018-11-28T06:03:13.795Z,95.81
2018-11-28T06:05:43.099Z,95.67
2018-11-28T06:08:12.065Z,95.27
2018-11-28T06:10:41.305Z,95.70
2018-11-28T06:13:10.265Z,96.60
2018-11-28T06:15:39.202Z,94.76
2018-11-28T06:18:08.967Z,94.14
2018-11-28T06:20:38.217Z,95.21
2018-11-28T06:23:07.482Z,95.81
2018-11-28T06:25:36.637Z,96.46
2018-11-28T06:28:05.883Z,96.44
2018-11-28T06:30:34.861Z,96.79
2018-11-28T06:33:03.821Z,96.83
2018-11-28T06:35:32.788Z,97.05
2018-11-28T06:38:01.743Z,96.74
2018-11-28T06:40:30.770Z,97.07
2018-11-28T06:42:59.721Z,97.31
2018-11-28T06:45:28.831Z,97.13
2018-11-28T06:47:57.864Z,97.49
2018-11-28T06:50:26.986Z,97.36
2018-11-28T06:52:55.948Z,97.35
2018-11-28T06:55:24.939Z,97.43
2018-11-28T06:57:53.898Z,97.58
2018-11-28T07:00:23.299Z,97.54
2018-11-28T07:02:53.255Z,97.48
2018-11-28T07:05:22.841Z,97.24
2018-11-28T07:07:52.327Z,96.85
2018-11-28T07:10:22.146Z,96.38
2018-11-28T07:12:51.140Z,96.05
2018-11-28T07:15:24.119Z,95.46
2018-11-28T07:17:53.110Z,94.91
2018-11-28T07:20:22.245Z,94.76
2018-11-28T07:22:51.208Z,94.18
2018-11-28T07:25:20.239Z,93.68
2018-11-28T07:27:49.987Z,93.07
2018-11-28T07:30:20.089Z,91.79
2018-11-28T07:32:50.297Z,91.18
2018-11-28T07:35:19.409Z,90.48
2018-11-28T07:37:48.332Z,87.55
2018-11-28T07:40:19.525Z,86.68
2018-11-28T07:43:23.491Z,86.07
2018-11-28T07:45:52.998Z,83.35
2018-11-28T07:48:21.926Z,81.05
2018-11-28T07:50:50.954Z,80.31
2018-11-28T07:53:19.903Z,79.31
2018-11-28T07:55:48.843Z,78.18
2018-11-28T07:58:17.817Z,76.69
2018-11-28T08:00:46.782Z,74.21
2018-11-28T08:03:15.720Z,73.95
2018-11-28T08:05:44.662Z,75.03
2018-11-28T08:08:13.735Z,72.65
2018-11-28T08:10:42.712Z,71.23
2018-11-28T08:13:11.726Z,71.63
2018-11-28T08:15:40.633Z,69.93
2018-11-28T08:18:09.563Z,70.93
2018-11-28T08:20:38.638Z,69.78
2018-11-28T08:23:07.655Z,67.11
2018-11-28T08:25:36.647Z,66.71
2018-11-28T08:28:05.949Z,65.41
2018-11-28T08:30:34.935Z,63.90
2018-11-28T08:33:03.916Z,63.45
2018-11-28T08:35:32.935Z,64.22
2018-11-28T08:38:02.389Z,64.73
2018-11-28T08:40:31.328Z,64.58
2018-11-28T08:43:00.304Z,66.44
2018-11-28T08:45:29.311Z,65.91
2018-11-28T08:47:59.420Z,65.10
2018-11-28T08:50:34.330Z,64.48
2018-11-28T08:53:03.263Z,64.72
2018-11-28T08:55:32.258Z,65.61
2018-11-28T08:58:01.201Z,64.47
2018-11-28T09:00:30.137Z,64.58
2018-11-28T09:03:06.234Z,63.87
2018-11-28T09:05:35.261Z,66.07
2018-11-28T09:08:04.204Z,62.09
2018-11-28T09:10:33.316Z,63.04
2018-11-28T09:13:04.327Z,63.01
2018-11-28T09:15:31.950Z,62.13
2018-11-28T09:18:00.922Z,61.73
2018-11-28T09:20:29.869Z,60.92
2018-11-28T09:22:58.827Z,59.81
2018-11-28T09:25:27.772Z,58.11
2018-11-28T09:27:58.067Z,60.51
2018-11-28T09:30:27.035Z,58.46
2018-11-28T09:32:55.964Z,56.77
2018-11-28T09:35:24.970Z,55.24
2018-11-28T09:37:53.919Z,55.86
2018-11-28T09:40:24.862Z,53.31
2018-11-28T09:42:55.976Z,52.42
2018-11-28T09:45:24.936Z,53.99
2018-11-28T09:47:53.933Z,57.05
2018-11-28T09:50:23.907Z,57.62
2018-11-28T09:52:53.100Z,58.29
2018-11-28T09:55:25.091Z,56.76
2018-11-28T09:57:54.117Z,54.75
2018-11-28T10:00:25.015Z,57.56
2018-11-28T10:02:56.094Z,60.07
2018-11-28T10:05:30.155Z,58.68
2018-11-28T10:07:59.567Z,57.49
2018-11-28T10:10:28.649Z,58.85
2018-11-28T10:12:57.807Z,54.25
2018-11-28T10:15:28.547Z,51.79
2018-11-28T10:17:57.431Z,52.98
2018-11-28T10:20:26.376Z,51.98
2018-11-28T10:22:55.563Z,50.06
2018-11-28T10:25:26.387Z,49.25
2018-11-28T10:27:58.902Z,49.40
2018-11-28T10:30:30.187Z,50.57
2018-11-28T10:32:59.169Z,49.14
2018-11-28T10:35:28.124Z,49.31
2018-11-28T10:37:57.058Z,45.64
2018-11-28T10:40:26.213Z,47.32
2018-11-28T10:42:57.128Z,44.77
2018-11-28T10:45:26.974Z,44.33
2018-11-28T10:47:55.989Z,43.96
2018-11-28T10:50:24.904Z,44.49
2018-11-28T10:52:53.872Z,44.70
2018-11-28T10:55:23.676Z,46.57
2018-11-28T10:57:53.255Z,45.53
2018-11-28T11:00:28.683Z,46.33
2018-11-28T11:03:03.004Z,49.36
2018-11-28T11:05:37.287Z,51.64
2018-11-28T11:08:12.268Z,51.45
2018-11-28T11:10:46.719Z,51.30
2018-11-28T11:13:20.963Z,51.01
2018-11-28T11:16:00.073Z,51.79
2018-11-28T11:18:29.502Z,52.61
2018-11-28T11:20:58.408Z,54.18
2018-11-28T11:23:27.356Z,53.63
2018-11-28T11:25:56.409Z,51.52
2018-11-28T11:28:25.370Z,51.44
2018-11-28T11:30:55.522Z,53.78
2018-11-28T11:33:24.616Z,53.08
2018-11-28T11:35:53.625Z,53.17
2018-11-28T11:38:22.621Z,54.40
2018-11-28T11:40:51.594Z,52.35
2018-11-28T11:43:20.536Z,53.17
2018-11-28T11:45:49.655Z,52.26
2018-11-28T11:48:18.595Z,51.42
2018-11-28T11:50:47.553Z,52.65
2018-11-28T11:53:16.529Z,51.78
2018-11-28T11:55:45.613Z,53.02
2018-11-28T11:58:14.548Z,54.47
2018-11-28T12:00:45.039Z,55.24
2018-11-28T12:03:14.653Z,55.44
2018-11-28T12:05:45.457Z,53.90
2018-11-28T12:08:14.399Z,53.67
2018-11-28T12:10:43.396Z,53.25
2018-11-28T12:13:12.307Z,53.81
2018-11-28T12:15:41.397Z,53.37
2018-11-28T12:18:10.579Z,53.28
2018-11-28T12:20:41.695Z,54.27
2018-11-28T12:23:10.656Z,53.79
2018-11-28T12:25:39.733Z,54.38
2018-11-28T12:28:08.700Z,55.14
2018-11-28T12:30:38.854Z,53.38
2018-11-28T12:33:07.993Z,53.51
2018-11-28T12:35:36.936Z,53.07
2018-11-28T12:38:06.548Z,52.16
2018-11-28T12:40:36.154Z,54.11
2018-11-28T12:43:08.799Z,54.26
2018-11-28T12:45:39.794Z,53.83
2018-11-28T12:48:08.823Z,53.31
2018-11-28T12:50:37.917Z,53.44
2018-11-28T12:53:08.236Z,54.48
2018-11-28T12:55:37.656Z,54.31
2018-11-28T12:58:08.978Z,53.93
2018-11-28T13:00:37.968Z,54.41
2018-11-28T13:03:08.399Z,54.50
2018-11-28T13:05:37.331Z,54.74
2018-11-28T13:08:06.569Z,54.71
2018-11-28T13:10:37.457Z,53.86
2018-11-28T13:13:07.960Z,53.75
2018-11-28T13:15:37.793Z,54.76
2018-11-28T13:18:07.924Z,54.90
2018-11-28T13:20:36.941Z,53.59
2018-11-28T13:23:06.636Z,53.20
2018-11-28T13:25:35.567Z,54.20
2018-11-28T13:28:04.514Z,53.99
2018-11-28T13:30:33.522Z,54.84
2018-11-28T13:33:02.459Z,54.83
2018-11-28T13:35:31.381Z,54.08
2018-11-28T13:38:17.586Z,54.99
2018-11-28T13:40:46.596Z,54.97
2018-11-28T13:43:15.587Z,54.84
2018-11-28T13:45:46.221Z,54.56
2018-11-28T13:48:16.236Z,55.00
2018-11-28T13:50:45.191Z,56.81
2018-11-28T13:53:15.864Z,56.46
2018-11-28T13:56:57.317Z,56.15
2018-11-28T13:58:23.569Z,55.64
2018-11-28T14:00:53.841Z,55.87
2018-11-28T14:03:23.236Z,57.03
2018-11-28T14:05:52.304Z,57.71
2018-11-28T14:08:21.263Z,57.37
2018-11-28T14:10:50.201Z,58.43
2018-11-28T14:13:19.176Z,58.29
2018-11-28T14:15:48.103Z,58.57
2018-11-28T14:18:18.464Z,59.15
2018-11-28T14:20:47.385Z,59.12
2018-11-28T14:23:16.323Z,58.75
2018-11-28T14:25:45.251Z,58.92
2018-11-28T14:28:14.242Z,58.90
2018-11-28T14:30:44.198Z,59.26
2018-11-28T14:33:13.203Z,59.22
2018-11-28T14:35:42.135Z,59.75
2018-11-28T14:38:11.201Z,60.06
2018-11-28T14:40:40.144Z,60.52
2018-11-28T14:43:09.123Z,60.70
2018-11-28T14:45:38.071Z,60.97
2018-11-28T14:48:07.057Z,61.27
2018-11-28T14:50:35.982Z,61.85
2018-11-28T14:53:05.139Z,61.93
2018-11-28T14:55:36.257Z,61.92
2018-11-28T14:58:05.452Z,62.09
2018-11-28T15:00:34.494Z,62.54
2018-11-28T15:03:06.749Z,62.37
2018-11-28T15:05:47.424Z,62.38
2018-11-28T15:08:18.097Z,62.77
2018-11-28T15:10:53.532Z,63.02
2018-11-28T15:13:22.455Z,63.50
2018-11-28T15:15:51.467Z,63.29
2018-11-28T15:18:20.387Z,63.65
2018-11-28T15:20:49.331Z,63.76
2018-11-28T15:23:18.271Z,63.91
2018-11-28T15:25:47.232Z,64.12
2018-11-28T15:28:16.193Z,64.15
2018-11-28T15:30:45.339Z,64.05
2018-11-28T15:33:14.326Z,64.23
2018-11-28T15:35:43.320Z,64.91
2018-11-28T15:38:12.468Z,64.42
2018-11-28T15:40:41.972Z,65.02
2018-11-28T15:43:10.916Z,64.43
2018-11-28T15:45:40.018Z,65.03
2018-11-28T15:48:08.954Z,65.44
2018-11-28T15:50:37.895Z,65.53
2018-11-28T15:53:07.014Z,65.58
2018-11-28T15:55:36.122Z,66.13
2018-11-28T15:58:05.475Z,65.41
2018-11-28T16:00:34.565Z,65.35
2018-11-28T16:03:03.540Z,65.78
2018-11-28T16:05:32.532Z,65.29
2018-11-28T16:08:01.528Z,65.58
2018-11-28T16:10:39.928Z,65.79
2018-11-28T16:13:09.143Z,65.61
2018-11-28T16:15:43.256Z,65.60
2018-11-28T16:18:12.228Z,65.60
2018-11-28T16:20:41.160Z,65.53
2018-11-28T16:23:10.140Z,65.66
2018-11-28T16:25:39.184Z,65.35
2018-11-28T16:28:08.531Z,66.08
2018-11-28T16:30:37.467Z,66.10
2018-11-28T16:33:07.138Z,65.98
2018-11-28T16:35:36.966Z,66.17
2018-11-28T16:38:06.368Z,65.64
2018-11-28T16:40:35.396Z,66.20
2018-11-28T16:43:04.381Z,65.83
2018-11-28T16:45:33.373Z,65.70
2018-11-28T16:48:03.016Z,65.65
2018-11-28T16:50:31.992Z,65.38
2018-11-28T16:53:00.968Z,65.88
2018-11-28T16:55:29.933Z,65.42
2018-11-28T16:57:58.869Z,65.23
2018-11-28T17:00:29.147Z,65.50
2018-11-28T17:02:58.247Z,65.66
2018-11-28T17:05:28.994Z,65.62
2018-11-28T17:07:58.883Z,65.47
2018-11-28T17:10:28.841Z,65.64
2018-11-28T17:12:58.668Z,65.74
2018-11-28T17:15:28.230Z,65.23
2018-11-28T17:17:57.233Z,64.83
2018-11-28T17:20:27.463Z,64.86
2018-11-28T17:22:57.793Z,65.06
2018-11-28T17:25:30.051Z,65.54
2018-11-28T17:27:59.257Z,65.62
2018-11-28T17:30:29.176Z,66.00
2018-11-28T17:32:58.220Z,65.33
2018-11-28T17:35:27.181Z,65.34
2018-11-28T17:37:56.189Z,65.31
2018-11-28T17:40:26.402Z,65.20
2018-11-28T17:42:56.587Z,65.27
2018-11-28T17:45:25.952Z,65.48
2018-11-28T17:47:54.891Z,64.84
2018-11-28T17:50:25.714Z,65.35
2018-11-28T17:53:01.363Z,65.14
2018-11-28T17:55:32.507Z,66.09
2018-11-28T17:58:01.651Z,65.23
2018-11-28T18:00:31.283Z,65.04
2018-11-28T18:03:00.263Z,66.16
2018-11-28T18:05:29.307Z,66.12
2018-11-28T18:07:58.293Z,66.38
2018-11-28T18:10:27.228Z,66.38
2018-11-28T18:13:17.547Z,66.08
2018-11-28T18:15:48.024Z,66.18
2018-11-28T18:18:18.358Z,66.64
2018-11-28T18:20:50.187Z,66.33
2018-11-28T18:23:16.364Z,67.02
2018-11-28T18:25:46.059Z,67.54
2018-11-28T18:28:15.045Z,67.07
2018-11-28T18:30:45.443Z,67.36
2018-11-28T18:33:14.794Z,67.78
2018-11-28T18:35:43.998Z,67.71
2018-11-28T18:38:12.976Z,67.61
2018-11-28T18:40:41.930Z,68.15
2018-11-28T18:43:11.372Z,67.83
2018-11-28T18:45:42.225Z,68.36
2018-11-28T18:48:11.181Z,68.23
2018-11-28T18:50:40.111Z,68.41
2018-11-28T18:53:09.056Z,68.34
2018-11-28T18:55:38.003Z,68.77
2018-11-28T18:58:08.491Z,68.30
2018-11-28T19:00:37.632Z,68.64
2018-11-28T19:03:07.389Z,68.54
2018-11-28T19:05:36.522Z,68.85
2018-11-28T19:08:06.293Z,69.02
2018-11-28T19:10:35.367Z,68.81
2018-11-28T19:13:04.483Z,68.41
2018-11-28T19:15:33.494Z,69.35
2018-11-28T19:18:02.610Z,69.25
2018-11-28T19:20:31.578Z,69.05
2018-11-28T19:23:00.534Z,69.38
2018-11-28T19:25:29.916Z,69.77
2018-11-28T19:27:58.840Z,69.50
2018-11-28T19:30:32.906Z,69.13
2018-11-28T19:33:01.864Z,69.45
2018-11-28T19:35:32.837Z,69.41
2018-11-28T19:38:02.655Z,70.05
2018-11-28T19:40:45.534Z,69.88
2018-11-28T19:43:14.519Z,69.90
2018-11-28T19:45:43.583Z,70.42
2018-11-28T19:48:12.620Z,69.88
2018-11-28T19:50:41.907Z,70.18
2018-11-28T19:53:10.987Z,69.87
2018-11-28T19:55:40.644Z,69.79
2018-11-28T19:58:09.678Z,69.91
2018-11-28T20:00:41.774Z,69.59
2018-11-28T20:03:10.753Z,69.13
2018-11-28T20:05:39.687Z,69.14
2018-11-28T20:08:08.979Z,69.64
2018-11-28T20:10:38.241Z,69.32
2018-11-28T20:13:08.907Z,69.53
2018-11-28T20:15:38.943Z,69.42
2018-11-28T20:18:09.032Z,69.17
2018-11-28T20:20:38.284Z,69.41
2018-11-28T20:23:08.284Z,68.89
2018-11-28T20:25:37.842Z,69.67
2018-11-28T20:28:08.220Z,69.06
2018-11-28T20:30:41.727Z,68.83
2018-11-28T20:33:11.468Z,68.90
2018-11-28T20:35:41.345Z,69.49
2018-11-28T20:38:15.012Z,69.94
2018-11-28T20:40:43.971Z,70.16
2018-11-28T20:43:13.161Z,70.09
2018-11-28T20:45:42.562Z,70.64
2018-11-28T20:48:11.536Z,70.28
2018-11-28T20:50:41.011Z,70.91
2018-11-28T20:53:11.527Z,71.31
2018-11-28T20:55:40.774Z,71.89
2018-11-28T20:58:09.907Z,72.48
2018-11-28T21:00:39.149Z,72.52
2018-11-28T21:03:09.375Z,72.81
2018-11-28T21:05:38.347Z,73.00
2018-11-28T21:08:09.572Z,73.62
2018-11-28T21:10:40.341Z,73.57
2018-11-28T21:13:13.937Z,74.06
2018-11-28T21:15:44.452Z,74.17
2018-11-28T21:18:13.839Z,74.99
2018-11-28T21:20:44.055Z,75.27
2018-11-28T21:23:14.334Z,75.37
2018-11-28T21:25:43.603Z,75.45
2018-11-28T21:28:12.624Z,75.40
2018-11-28T21:30:41.920Z,75.80
2018-11-28T21:33:12.319Z,75.87
2018-11-28T21:35:43.422Z,75.98
2018-11-28T21:38:12.444Z,76.64
2018-11-28T21:40:41.483Z,76.55
2018-11-28T21:43:10.466Z,76.23
2018-11-28T21:45:39.640Z,76.73
2018-11-28T21:48:08.624Z,77.17
2018-11-28T21:50:37.637Z,76.58
2018-11-28T21:53:08.161Z,77.35
2018-11-28T21:55:37.292Z,77.36
2018-11-28T21:58:06.643Z,76.80
2018-11-28T22:00:36.639Z,77.35
2018-11-28T22:03:06.654Z,77.43
2018-11-28T22:05:35.647Z,77.24
2018-11-28T22:08:04.594Z,77.44
2018-11-28T22:10:33.732Z,77.66
2018-11-28T22:13:02.887Z,76.97
2018-11-28T22:15:31.850Z,77.34
2018-11-28T22:18:00.980Z,77.10
2018-11-28T22:20:29.947Z,77.21
2018-11-28T22:22:58.893Z,77.32
2018-11-28T22:25:28.341Z,77.41
2018-11-28T22:27:57.757Z,77.35
2018-11-28T22:30:28.503Z,76.87
2018-11-28T22:32:58.038Z,76.88
2018-11-28T22:35:27.083Z,76.53
2018-11-28T22:37:56.052Z,76.54
2018-11-28T22:40:27.067Z,76.57
2018-11-28T22:42:56.021Z,76.65
2018-11-28T22:45:28.274Z,76.12
2018-11-28T22:47:57.223Z,76.13
2018-11-28T22:50:26.210Z,76.23
2018-11-28T22:52:55.155Z,76.16
2018-11-28T22:55:24.104Z,75.96
2018-11-28T22:57:53.199Z,75.64
2018-11-28T23:00:30.293Z,75.42
2018-11-28T23:03:07.836Z,75.27
2018-11-28T23:05:40.164Z,75.17
2018-11-28T23:08:09.989Z,75.49
2018-11-28T23:10:39.453Z,75.31
2018-11-28T23:13:09.488Z,74.85
2018-11-28T23:15:38.437Z,74.86
2018-11-28T23:18:08.342Z,75.28
2018-11-28T23:20:37.381Z,74.65
2018-11-28T23:23:07.305Z,75.03
2018-11-28T23:25:36.573Z,75.23
2018-11-28T23:28:05.816Z,74.85
2018-11-28T23:30:34.763Z,74.73
2018-11-28T23:33:05.608Z,74.79
2018-11-28T23:35:35.884Z,74.01
2018-11-28T23:38:05.717Z,73.76
2018-11-28T23:40:34.671Z,73.96
2018-11-28T23:43:04.009Z,73.96
2018-11-28T23:45:33.061Z,73.85
2018-11-28T23:48:02.252Z,74.31
2018-11-28T23:50:31.212Z,74.71
2018-11-28T23:53:00.169Z,74.70
2018-11-28T23:55:30.296Z,74.74
2018-11-28T23:57:59.268Z,74.46
